sensor_id;sensor_type;location;lat;lon;timestamp;pressure;altitude;pressure_sealevel;temperature;humidity
9784;BME280;4931;44.874;-1.092;2023-05-22T00:00:29;101301.59;;;16.04;100.00
9784;BME280;4931;44.874;-1.092;2023-05-22T00:02:56;101300.34;;;15.97;100.00
9784;BME280;4931;44.874;-1.092;2023-05-22T00:05:22;101292.28;;;16.00;100.00
9784;BME280;4931;44.874;-1.092;2023-05-22T00:07:48;101286.44;;;16.02;100.00
9784;BME280;4931;44.874;-1.092;2023-05-22T00:10:14;101296.59;;;16.06;100.00
9784;BME280;4931;44.874;-1.092;2023-05-22T00:12:39;101282.94;;;15.96;100.00
9784;BME280;4931;44.874;-1.092;2023-05-22T00:15:05;101288.88;;;16.03;100.00
9784;BME280;4931;44.874;-1.092;2023-05-22T00:17:32;101294.63;;;16.07;100.00
9784;BME280;4931;44.874;-1.092;2023-05-22T00:19:58;101302.13;;;16.06;100.00
9784;BME280;4931;44.874;-1.092;2023-05-22T00:22:29;101288.31;;;16.06;100.00
9784;BME280;4931;44.874;-1.092;2023-05-22T00:25:03;101278.97;;;16.02;100.00
9784;BME280;4931;44.874;-1.092;2023-05-22T00:27:29;101276.78;;;15.99;100.00
9784;BME280;4931;44.874;-1.092;2023-05-22T00:29:55;101285.63;;;16.01;100.00
9784;BME280;4931;44.874;-1.092;2023-05-22T00:32:20;101277.00;;;16.03;100.00
9784;BME280;4931;44.874;-1.092;2023-05-22T00:34:46;101294.88;;;16.10;100.00
9784;BME280;4931;44.874;-1.092;2023-05-22T00:37:11;101279.06;;;15.97;100.00
9784;BME280;4931;44.874;-1.092;2023-05-22T00:39:37;101297.94;;;16.09;100.00
9784;BME280;4931;44.874;-1.092;2023-05-22T00:42:03;101291.06;;;16.06;100.00
9784;BME280;4931;44.874;-1.092;2023-05-22T00:44:28;101279.25;;;16.01;100.00
9784;BME280;4931;44.874;-1.092;2023-05-22T00:46:54;101273.53;;;15.97;100.00
9784;BME280;4931;44.874;-1.092;2023-05-22T00:49:21;101275.75;;;15.95;100.00
9784;BME280;4931;44.874;-1.092;2023-05-22T00:51:47;101270.00;;;15.91;100.00
9784;BME280;4931;44.874;-1.092;2023-05-22T00:54:13;101284.59;;;15.97;100.00
9784;BME280;4931;44.874;-1.092;2023-05-22T00:56:40;101276.38;;;15.92;100.00
9784;BME280;4931;44.874;-1.092;2023-05-22T00:59:06;101275.97;;;15.99;100.00
9784;BME280;4931;44.874;-1.092;2023-05-22T01:01:32;101276.78;;;15.99;100.00
9784;BME280;4931;44.874;-1.092;2023-05-22T01:04:03;101276.78;;;15.99;100.00
9784;BME280;4931;44.874;-1.092;2023-05-22T01:06:29;101280.09;;;16.01;100.00
9784;BME280;4931;44.874;-1.092;2023-05-22T01:08:57;101258.34;;;15.95;100.00
9784;BME280;4931;44.874;-1.092;2023-05-22T01:12:00;101267.91;;;16.02;100.00
9784;BME280;4931;44.874;-1.092;2023-05-22T01:14:33;101270.94;;;16.01;100.00
9784;BME280;4931;44.874;-1.092;2023-05-22T01:20:14;101276.38;;;15.92;100.00
9784;BME280;4931;44.874;-1.092;2023-05-22T01:28:26;101255.66;;;15.89;100.00
9784;BME280;4931;44.874;-1.092;2023-05-22T01:31:04;101256.47;;;15.90;100.00
9784;BME280;4931;44.874;-1.092;2023-05-22T01:33:39;101261.00;;;15.86;100.00
9784;BME280;4931;44.874;-1.092;2023-05-22T01:36:06;101256.56;;;15.85;100.00
9784;BME280;4931;44.874;-1.092;2023-05-22T01:38:33;101261.50;;;15.88;100.00
9784;BME280;4931;44.874;-1.092;2023-05-22T01:40:59;101257.25;;;15.76;100.00
9784;BME280;4931;44.874;-1.092;2023-05-22T01:43:25;101247.81;;;15.77;100.00
9784;BME280;4931;44.874;-1.092;2023-05-22T01:45:51;101253.34;;;15.77;100.00
9784;BME280;4931;44.874;-1.092;2023-05-22T01:48:17;101244.22;;;15.77;100.00
9784;BME280;4931;44.874;-1.092;2023-05-22T01:50:43;101237.16;;;15.71;100.00
9784;BME280;4931;44.874;-1.092;2023-05-22T01:56:06;101239.00;;;15.75;100.00
9784;BME280;4931;44.874;-1.092;2023-05-22T02:01:07;101239.63;;;15.72;100.00
9784;BME280;4931;44.874;-1.092;2023-05-22T02:03:34;101242.06;;;15.74;100.00
9784;BME280;4931;44.874;-1.092;2023-05-22T02:06:05;101227.94;;;15.75;100.00
9784;BME280;4931;44.874;-1.092;2023-05-22T02:08:32;101230.19;;;15.73;100.00
9784;BME280;4931;44.874;-1.092;2023-05-22T02:10:58;101232.97;;;15.73;100.00
9784;BME280;4931;44.874;-1.092;2023-05-22T02:13:25;101229.91;;;15.75;100.00
9784;BME280;4931;44.874;-1.092;2023-05-22T02:15:51;101244.53;;;15.75;100.00
9784;BME280;4931;44.874;-1.092;2023-05-22T02:18:16;101233.06;;;15.68;100.00
9784;BME280;4931;44.874;-1.092;2023-05-22T02:20:42;101234.25;;;15.62;100.00
9784;BME280;4931;44.874;-1.092;2023-05-22T02:23:07;101237.09;;;15.57;100.00
9784;BME280;4931;44.874;-1.092;2023-05-22T02:25:33;101243.84;;;15.51;100.00
9784;BME280;4931;44.874;-1.092;2023-05-22T02:27:59;101245.88;;;15.45;100.00
9784;BME280;4931;44.874;-1.092;2023-05-22T02:30:24;101241.16;;;15.46;100.00
9784;BME280;4931;44.874;-1.092;2023-05-22T02:32:50;101237.28;;;15.47;100.00
9784;BME280;4931;44.874;-1.092;2023-05-22T02:35:16;101238.53;;;15.54;100.00
9784;BME280;4931;44.874;-1.092;2023-05-22T02:37:41;101246.59;;;15.51;100.00
9784;BME280;4931;44.874;-1.092;2023-05-22T02:40:07;101245.47;;;15.52;100.00
9784;BME280;4931;44.874;-1.092;2023-05-22T02:42:34;101243.84;;;15.51;100.00
9784;BME280;4931;44.874;-1.092;2023-05-22T02:45:00;101231.75;;;15.47;100.00
9784;BME280;4931;44.874;-1.092;2023-05-22T02:47:25;101231.75;;;15.47;100.00
9784;BME280;4931;44.874;-1.092;2023-05-22T02:49:51;101239.94;;;15.52;100.00
9784;BME280;4931;44.874;-1.092;2023-05-22T02:52:17;101242.63;;;15.57;100.00
9784;BME280;4931;44.874;-1.092;2023-05-22T02:54:42;101242.13;;;15.55;100.00
9784;BME280;4931;44.874;-1.092;2023-05-22T02:57:08;101230.53;;;15.53;100.00
9784;BME280;4931;44.874;-1.092;2023-05-22T02:59:34;101227.16;;;15.56;100.00
9784;BME280;4931;44.874;-1.092;2023-05-22T03:02:04;101226.66;;;15.54;100.00
9784;BME280;4931;44.874;-1.092;2023-05-22T03:04:29;101224.94;;;15.58;100.00
9784;BME280;4931;44.874;-1.092;2023-05-22T03:06:55;101225.00;;;15.53;100.00
9784;BME280;4931;44.874;-1.092;2023-05-22T03:09:20;101236.28;;;15.56;100.00
9784;BME280;4931;44.874;-1.092;2023-05-22T03:11:46;101223.38;;;15.52;100.00
9784;BME280;4931;44.874;-1.092;2023-05-22T03:14:11;101241.81;;;15.56;100.00
9784;BME280;4931;44.874;-1.092;2023-05-22T03:16:37;101230.53;;;15.53;100.00
9784;BME280;4931;44.874;-1.092;2023-05-22T03:19:13;101238.75;;;15.58;100.00
9784;BME280;4931;44.874;-1.092;2023-05-22T03:21:39;101232.19;;;15.54;100.00
9784;BME280;4931;44.874;-1.092;2023-05-22T03:24:06;101235.03;;;15.49;100.00
9784;BME280;4931;44.874;-1.092;2023-05-22T03:26:32;101225.19;;;15.42;100.00
9784;BME280;4931;44.874;-1.092;2023-05-22T03:28:57;101235.94;;;15.44;100.00
9784;BME280;4931;44.874;-1.092;2023-05-22T03:31:28;101242.69;;;15.38;100.00
9784;BME280;4931;44.874;-1.092;2023-05-22T03:33:55;101215.69;;;15.30;100.00
9784;BME280;4931;44.874;-1.092;2023-05-22T03:36:21;101237.03;;;15.43;100.00
9784;BME280;4931;44.874;-1.092;2023-05-22T03:38:47;101241.75;;;15.42;100.00
9784;BME280;4931;44.874;-1.092;2023-05-22T03:41:13;101248.94;;;15.43;100.00
9784;BME280;4931;44.874;-1.092;2023-05-22T03:43:39;101248.94;;;15.43;100.00
9784;BME280;4931;44.874;-1.092;2023-05-22T03:46:04;101240.50;;;15.35;100.00
9784;BME280;4931;44.874;-1.092;2023-05-22T03:48:30;101262.03;;;15.38;100.00
9784;BME280;4931;44.874;-1.092;2023-05-22T03:50:55;101250.88;;;15.43;100.00
9784;BME280;4931;44.874;-1.092;2023-05-22T03:53:21;101238.03;;;15.33;100.00
9784;BME280;4931;44.874;-1.092;2023-05-22T03:55:47;101251.56;;;15.35;100.00
9784;BME280;4931;44.874;-1.092;2023-05-22T03:58:12;101254.97;;;15.46;100.00
9784;BME280;4931;44.874;-1.092;2023-05-22T04:00:38;101240.94;;;15.42;100.00
9784;BME280;4931;44.874;-1.092;2023-05-22T04:03:03;101237.88;;;15.43;100.00
9784;BME280;4931;44.874;-1.092;2023-05-22T04:05:29;101245.63;;;15.41;100.00
9784;BME280;4931;44.874;-1.092;2023-05-22T04:07:56;101262.69;;;15.49;100.00
9784;BME280;4931;44.874;-1.092;2023-05-22T04:10:21;101259.63;;;15.50;100.00
9784;BME280;4931;44.874;-1.092;2023-05-22T04:12:48;101249.56;;;15.40;100.00
9784;BME280;4931;44.874;-1.092;2023-05-22T04:15:14;101263.66;;;15.39;100.00
9784;BME280;4931;44.874;-1.092;2023-05-22T04:17:40;101276.13;;;15.36;100.00
9784;BME280;4931;44.874;-1.092;2023-05-22T04:20:07;101258.06;;;15.25;100.00
9784;BME280;4931;44.874;-1.092;2023-05-22T04:22:33;101278.38;;;15.34;100.00
9784;BME280;4931;44.874;-1.092;2023-05-22T04:24:58;101279.44;;;15.38;100.00
9784;BME280;4931;44.874;-1.092;2023-05-22T04:27:24;101284.41;;;15.36;100.00
9784;BME280;4931;44.874;-1.092;2023-05-22T04:29:51;101282.19;;;15.38;100.00
9784;BME280;4931;44.874;-1.092;2023-05-22T04:32:17;101286.59;;;15.39;100.00
9784;BME280;4931;44.874;-1.092;2023-05-22T04:34:47;101277.09;;;15.46;100.00
9784;BME280;4931;44.874;-1.092;2023-05-22T04:37:14;101276.34;;;15.40;100.00
9784;BME280;4931;44.874;-1.092;2023-05-22T04:39:40;101286.00;;;15.42;100.00
9784;BME280;4931;44.874;-1.092;2023-05-22T04:42:06;101293.56;;;15.37;100.00
9784;BME280;4931;44.874;-1.092;2023-05-22T04:44:33;101290.84;;;15.32;100.00
9784;BME280;4931;44.874;-1.092;2023-05-22T04:47:01;101304.53;;;15.23;100.00
9784;BME280;4931;44.874;-1.092;2023-05-22T04:49:28;101299.06;;;15.18;100.00
9784;BME280;4931;44.874;-1.092;2023-05-22T04:51:54;101311.53;;;15.15;100.00
9784;BME280;4931;44.874;-1.092;2023-05-22T04:54:20;101339.34;;;15.24;100.00
9784;BME280;4931;44.874;-1.092;2023-05-22T04:56:45;101330.06;;;15.15;100.00
9784;BME280;4931;44.874;-1.092;2023-05-22T04:59:10;101350.16;;;15.20;100.00
9784;BME280;4931;44.874;-1.092;2023-05-22T05:01:40;101357.56;;;15.25;100.00
9784;BME280;4931;44.874;-1.092;2023-05-22T05:04:10;101358.69;;;15.24;100.00
9784;BME280;4931;44.874;-1.092;2023-05-22T05:06:35;101360.63;;;15.23;100.00
9784;BME280;4931;44.874;-1.092;2023-05-22T05:09:03;101352.09;;;15.20;100.00
9784;BME280;4931;44.874;-1.092;2023-05-22T05:11:28;101364.13;;;15.29;100.00
9784;BME280;4931;44.874;-1.092;2023-05-22T05:13:54;101365.19;;;15.33;100.00
9784;BME280;4931;44.874;-1.092;2023-05-22T05:16:19;101374.00;;;15.35;100.00
9784;BME280;4931;44.874;-1.092;2023-05-22T05:18:45;101371.81;;;15.32;100.00
9784;BME280;4931;44.874;-1.092;2023-05-22T05:21:11;101372.00;;;15.41;100.00
9784;BME280;4931;44.874;-1.092;2023-05-22T05:23:36;101376.09;;;15.43;100.00
9784;BME280;4931;44.874;-1.092;2023-05-22T05:26:02;101370.03;;;15.41;100.00
9784;BME280;4931;44.874;-1.092;2023-05-22T05:28:28;101363.41;;;15.42;100.00
9784;BME280;4931;44.874;-1.092;2023-05-22T05:30:53;101354.50;;;15.46;100.00
9784;BME280;4931;44.874;-1.092;2023-05-22T05:33:19;101361.38;;;15.48;100.00
9784;BME280;4931;44.874;-1.092;2023-05-22T05:35:44;101360.50;;;15.53;100.00
9784;BME280;4931;44.874;-1.092;2023-05-22T05:38:10;101361.59;;;15.52;100.00
9784;BME280;4931;44.874;-1.092;2023-05-22T05:40:35;101361.59;;;15.52;100.00
9784;BME280;4931;44.874;-1.092;2023-05-22T05:43:01;101367.88;;;15.57;100.00
9784;BME280;4931;44.874;-1.092;2023-05-22T05:45:27;101360.41;;;15.58;100.00
9784;BME280;4931;44.874;-1.092;2023-05-22T05:47:53;101357.25;;;15.46;100.00
9784;BME280;4931;44.874;-1.092;2023-05-22T05:50:19;101365.72;;;15.54;100.00
9784;BME280;4931;44.874;-1.092;2023-05-22T05:52:45;101349.34;;;15.58;100.00
9784;BME280;4931;44.874;-1.092;2023-05-22T05:55:10;101366.84;;;15.72;100.00
9784;BME280;4931;44.874;-1.092;2023-05-22T05:57:36;101364.47;;;15.85;100.00
9784;BME280;4931;44.874;-1.092;2023-05-22T06:00:02;101356.19;;;15.80;100.00
9784;BME280;4931;44.874;-1.092;2023-05-22T06:02:29;101352.47;;;15.70;100.00
9784;BME280;4931;44.874;-1.092;2023-05-22T06:04:55;101359.03;;;15.74;100.00
9784;BME280;4931;44.874;-1.092;2023-05-22T06:07:20;101362.13;;;15.73;100.00
9784;BME280;4931;44.874;-1.092;2023-05-22T06:09:46;101355.38;;;15.79;100.00
9784;BME280;4931;44.874;-1.092;2023-05-22T06:12:11;101351.34;;;15.71;100.00
9784;BME280;4931;44.874;-1.092;2023-05-22T06:14:38;101360.69;;;15.75;100.00
9784;BME280;4931;44.874;-1.092;2023-05-22T06:17:05;101368.50;;;15.73;100.00
9784;BME280;4931;44.874;-1.092;2023-05-22T06:19:33;101374.03;;;15.73;100.00
9784;BME280;4931;44.874;-1.092;2023-05-22T06:21:59;101373.19;;;15.73;100.00
9784;BME280;4931;44.874;-1.092;2023-05-22T06:24:24;101375.63;;;15.74;100.00
9784;BME280;4931;44.874;-1.092;2023-05-22T06:26:50;101383.88;;;15.80;100.00
9784;BME280;4931;44.874;-1.092;2023-05-22T06:29:16;101382.25;;;15.79;100.00
9784;BME280;4931;44.874;-1.092;2023-05-22T06:31:41;101380.66;;;15.72;100.00
9784;BME280;4931;44.874;-1.092;2023-05-22T06:34:07;101381.16;;;15.74;100.00
9784;BME280;4931;44.874;-1.092;2023-05-22T06:36:32;101374.59;;;15.70;100.00
9784;BME280;4931;44.874;-1.092;2023-05-22T06:38:59;101382.59;;;15.72;100.00
9784;BME280;4931;44.874;-1.092;2023-05-22T06:41:25;101383.34;;;15.77;100.00
9784;BME280;4931;44.874;-1.092;2023-05-22T06:43:50;101390.38;;;15.70;100.00
9784;BME280;4931;44.874;-1.092;2023-05-22T06:46:16;101394.56;;;15.67;100.00
9784;BME280;4931;44.874;-1.092;2023-05-22T06:48:41;101394.03;;;15.65;100.00
9784;BME280;4931;44.874;-1.092;2023-05-22T06:51:07;101393.59;;;15.58;100.00
9784;BME280;4931;44.874;-1.092;2023-05-22T06:53:38;101410.06;;;15.68;100.00
9784;BME280;4931;44.874;-1.092;2023-05-22T06:56:04;101423.41;;;15.61;100.00
9784;BME280;4931;44.874;-1.092;2023-05-22T06:58:30;101440.13;;;15.51;100.00
9784;BME280;4931;44.874;-1.092;2023-05-22T07:00:55;101451.72;;;15.53;100.00
9784;BME280;4931;44.874;-1.092;2023-05-22T07:03:21;101468.31;;;15.53;100.00
9784;BME280;4931;44.874;-1.092;2023-05-22T07:05:46;101474.44;;;15.50;100.00
9784;BME280;4931;44.874;-1.092;2023-05-22T07:08:12;101482.75;;;15.50;100.00
9784;BME280;4931;44.874;-1.092;2023-05-22T07:10:37;101490.63;;;15.62;100.00
9784;BME280;4931;44.874;-1.092;2023-05-22T07:13:03;101486.66;;;15.68;100.00
9784;BME280;4931;44.874;-1.092;2023-05-22T07:15:28;101487.50;;;15.68;100.00
9784;BME280;4931;44.874;-1.092;2023-05-22T07:17:54;101493.97;;;15.58;100.00
9784;BME280;4931;44.874;-1.092;2023-05-22T07:20:19;101490.88;;;15.60;100.00
9784;BME280;4931;44.874;-1.092;2023-05-22T07:22:45;101489.84;;;15.56;100.00
9784;BME280;4931;44.874;-1.092;2023-05-22T07:25:10;101496.41;;;15.60;100.00
9784;BME280;4931;44.874;-1.092;2023-05-22T07:27:36;101497.25;;;15.60;100.00
9784;BME280;4931;44.874;-1.092;2023-05-22T07:30:02;101481.78;;;15.59;100.00
9784;BME280;4931;44.874;-1.092;2023-05-22T07:32:28;101490.06;;;15.59;100.00
9784;BME280;4931;44.874;-1.092;2023-05-22T07:34:53;101489.25;;;15.59;100.00
9784;BME280;4931;44.874;-1.092;2023-05-22T07:37:19;101487.00;;;15.61;100.00
9784;BME280;4931;44.874;-1.092;2023-05-22T07:39:44;101483.38;;;15.66;100.00
9784;BME280;4931;44.874;-1.092;2023-05-22T07:42:11;101478.06;;;15.69;100.00
9784;BME280;4931;44.874;-1.092;2023-05-22T07:44:38;101483.59;;;15.69;100.00
9784;BME280;4931;44.874;-1.092;2023-05-22T07:47:04;101477.78;;;15.71;100.00
9784;BME280;4931;44.874;-1.092;2023-05-22T07:49:29;101470.91;;;15.68;100.00
9784;BME280;4931;44.874;-1.092;2023-05-22T07:51:55;101470.22;;;15.76;100.00
9784;BME280;4931;44.874;-1.092;2023-05-22T07:54:20;101461.81;;;15.87;100.00
9784;BME280;4931;44.874;-1.092;2023-05-22T07:56:46;101455.09;;;15.93;100.00
9784;BME280;4931;44.874;-1.092;2023-05-22T07:59:12;101453.06;;;15.99;100.00
9784;BME280;4931;44.874;-1.092;2023-05-22T08:01:38;101443.34;;;16.01;100.00
9784;BME280;4931;44.874;-1.092;2023-05-22T08:04:05;101443.72;;;15.95;100.00
9784;BME280;4931;44.874;-1.092;2023-05-22T08:06:31;101439.53;;;15.97;100.00
9784;BME280;4931;44.874;-1.092;2023-05-22T08:08:56;101437.88;;;15.96;100.00
9784;BME280;4931;44.874;-1.092;2023-05-22T08:11:22;101431.75;;;15.99;100.00
9784;BME280;4931;44.874;-1.092;2023-05-22T08:13:47;101444.31;;;16.10;100.00
9784;BME280;4931;44.874;-1.092;2023-05-22T08:16:13;101441.00;;;16.08;100.00
9784;BME280;4931;44.874;-1.092;2023-05-22T08:18:38;101428.00;;;15.90;100.00
9784;BME280;4931;44.874;-1.092;2023-05-22T08:21:04;101435.84;;;16.02;100.00
9784;BME280;4931;44.874;-1.092;2023-05-22T08:23:29;101438.16;;;16.14;100.00
9784;BME280;4931;44.874;-1.092;2023-05-22T08:25:56;101436.78;;;16.30;100.00
9784;BME280;4931;44.874;-1.092;2023-05-22T08:28:22;101423.47;;;16.32;100.00
9784;BME280;4931;44.874;-1.092;2023-05-22T08:30:47;101425.03;;;16.38;100.00
9784;BME280;4931;44.874;-1.092;2023-05-22T08:33:13;101427.16;;;16.41;100.00
9784;BME280;4931;44.874;-1.092;2023-05-22T08:35:38;101415.91;;;16.52;100.00
9784;BME280;4931;44.874;-1.092;2023-05-22T08:38:04;101412.97;;;16.62;100.00
9784;BME280;4931;44.874;-1.092;2023-05-22T08:40:39;101419.84;;;16.51;100.00
9784;BME280;4931;44.874;-1.092;2023-05-22T08:43:06;101426.59;;;16.45;100.00
9784;BME280;4931;44.874;-1.092;2023-05-22T08:45:32;101419.22;;;16.54;100.00
9784;BME280;4931;44.874;-1.092;2023-05-22T08:47:59;101422.22;;;16.57;100.00
9784;BME280;4931;44.874;-1.092;2023-05-22T08:50:29;101421.06;;;16.58;100.00
9784;BME280;4931;44.874;-1.092;2023-05-22T08:52:55;101424.63;;;16.45;100.00
9784;BME280;4931;44.874;-1.092;2023-05-22T08:55:25;101424.13;;;16.57;100.00
9784;BME280;4931;44.874;-1.092;2023-05-22T08:57:51;101420.78;;;16.60;100.00
9784;BME280;4931;44.874;-1.092;2023-05-22T09:00:20;101420.06;;;16.68;100.00
9784;BME280;4931;44.874;-1.092;2023-05-22T09:02:46;101412.16;;;16.75;100.00
9784;BME280;4931;44.874;-1.092;2023-05-22T09:05:15;101417.59;;;16.81;100.00
9784;BME280;4931;44.874;-1.092;2023-05-22T09:07:41;101415.06;;;16.84;100.00
9784;BME280;4931;44.874;-1.092;2023-05-22T09:10:07;101412.94;;;16.95;100.00
9784;BME280;4931;44.874;-1.092;2023-05-22T09:12:32;101411.66;;;16.87;100.00
9784;BME280;4931;44.874;-1.092;2023-05-22T09:15:08;101409.41;;;16.75;100.00
9784;BME280;4931;44.874;-1.092;2023-05-22T09:17:37;101410.44;;;16.80;100.00
9784;BME280;4931;44.874;-1.092;2023-05-22T09:20:03;101419.63;;;16.94;100.00
9784;BME280;4931;44.874;-1.092;2023-05-22T09:22:36;101417.34;;;16.96;100.00
9784;BME280;4931;44.874;-1.092;2023-05-22T09:25:02;101413.44;;;17.11;100.00
9784;BME280;4931;44.874;-1.092;2023-05-22T09:27:28;101416.75;;;17.27;100.00
9784;BME280;4931;44.874;-1.092;2023-05-22T09:29:55;101410.34;;;17.40;100.00
9784;BME280;4931;44.874;-1.092;2023-05-22T09:32:22;101404.47;;;17.56;100.00
9784;BME280;4931;44.874;-1.092;2023-05-22T09:34:51;101392.16;;;17.85;100.00
9784;BME280;4931;44.874;-1.092;2023-05-22T09:37:17;101383.97;;;18.48;100.00
9784;BME280;4931;44.874;-1.092;2023-05-22T09:39:46;101383.91;;;18.79;100.00
9784;BME280;4931;44.874;-1.092;2023-05-22T09:42:15;101387.41;;;18.85;100.00
9784;BME280;4931;44.874;-1.092;2023-05-22T09:44:46;101376.91;;;18.82;100.00
9784;BME280;4931;44.874;-1.092;2023-05-22T09:47:12;101378.25;;;19.33;100.00
9784;BME280;4931;44.874;-1.092;2023-05-22T09:49:41;101372.88;;;19.98;100.00
9784;BME280;4931;44.874;-1.092;2023-05-22T09:52:07;101365.78;;;20.27;100.00
9784;BME280;4931;44.874;-1.092;2023-05-22T09:54:34;101367.94;;;19.78;100.00
9784;BME280;4931;44.874;-1.092;2023-05-22T09:57:00;101368.28;;;19.67;100.00
9784;BME280;4931;44.874;-1.092;2023-05-22T09:59:29;101376.31;;;19.69;100.00
9784;BME280;4931;44.874;-1.092;2023-05-22T10:01:55;101368.44;;;19.80;100.00
9784;BME280;4931;44.874;-1.092;2023-05-22T10:04:22;101361.53;;;19.33;100.00
9784;BME280;4931;44.874;-1.092;2023-05-22T10:06:52;101364.50;;;19.63;100.00
9784;BME280;4931;44.874;-1.092;2023-05-22T10:09:22;101359.28;;;19.53;100.00
9784;BME280;4931;44.874;-1.092;2023-05-22T10:11:51;101355.53;;;19.84;100.00
9784;BME280;4931;44.874;-1.092;2023-05-22T10:14:17;101358.47;;;19.96;100.00
9784;BME280;4931;44.874;-1.092;2023-05-22T10:16:43;101352.25;;;20.55;100.00
9784;BME280;4931;44.874;-1.092;2023-05-22T10:19:10;101346.69;;;20.94;100.00
9784;BME280;4931;44.874;-1.092;2023-05-22T10:21:38;101349.47;;;20.94;100.00
9784;BME280;4931;44.874;-1.092;2023-05-22T10:24:05;101347.88;;;21.65;100.00
9784;BME280;4931;44.874;-1.092;2023-05-22T10:26:32;101345.53;;;21.25;100.00
9784;BME280;4931;44.874;-1.092;2023-05-22T10:29:14;101345.41;;;21.43;100.00
9784;BME280;4931;44.874;-1.092;2023-05-22T10:31:47;101335.00;;;21.73;100.00
9784;BME280;4931;44.874;-1.092;2023-05-22T10:35:07;101337.22;;;21.80;100.00
9784;BME280;4931;44.874;-1.092;2023-05-22T10:38:00;101332.88;;;22.03;100.00
9784;BME280;4931;44.874;-1.092;2023-05-22T10:40:07;101322.53;;;22.04;100.00
9784;BME280;4931;44.874;-1.092;2023-05-22T10:42:33;101330.94;;;22.04;100.00
9784;BME280;4931;44.874;-1.092;2023-05-22T10:45:02;101329.16;;;21.99;100.00
9784;BME280;4931;44.874;-1.092;2023-05-22T10:47:28;101328.28;;;22.20;100.00
9784;BME280;4931;44.874;-1.092;2023-05-22T10:50:06;101322.50;;;22.37;100.00
9784;BME280;4931;44.874;-1.092;2023-05-22T10:52:32;101324.00;;;22.35;100.00
9784;BME280;4931;44.874;-1.092;2023-05-22T10:55:00;101322.19;;;22.05;100.00
9784;BME280;4931;44.874;-1.092;2023-05-22T10:57:33;101327.66;;;21.68;100.00
9784;BME280;4931;44.874;-1.092;2023-05-22T11:00:07;101322.38;;;21.46;100.00
9784;BME280;4931;44.874;-1.092;2023-05-22T11:02:38;101317.38;;;21.60;100.00
9784;BME280;4931;44.874;-1.092;2023-05-22T11:07:41;101305.44;;;22.05;100.00
9784;BME280;4931;44.874;-1.092;2023-05-22T11:10:07;101304.25;;;22.52;100.00
9784;BME280;4931;44.874;-1.092;2023-05-22T11:12:32;101302.47;;;23.10;100.00
9784;BME280;4931;44.874;-1.092;2023-05-22T11:15:04;101302.25;;;23.27;100.00
9784;BME280;4931;44.874;-1.092;2023-05-22T11:17:39;101294.28;;;24.14;100.00
9784;BME280;4931;44.874;-1.092;2023-05-22T11:20:11;101301.88;;;24.30;100.00
9784;BME280;4931;44.874;-1.092;2023-05-22T11:22:45;101291.63;;;24.06;100.00
9784;BME280;4931;44.874;-1.092;2023-05-22T11:25:18;101295.31;;;23.37;100.00
9784;BME280;4931;44.874;-1.092;2023-05-22T11:27:45;101293.78;;;23.40;100.00
9784;BME280;4931;44.874;-1.092;2023-05-22T11:30:12;101292.94;;;23.51;100.00
9784;BME280;4931;44.874;-1.092;2023-05-22T11:32:38;101289.13;;;23.72;100.00
9784;BME280;4931;44.874;-1.092;2023-05-22T11:35:05;101291.16;;;23.87;100.00
9784;BME280;4931;44.874;-1.092;2023-05-22T11:37:36;101283.28;;;24.38;100.00
9784;BME280;4931;44.874;-1.092;2023-05-22T11:40:03;101288.19;;;23.96;100.00
9784;BME280;4931;44.874;-1.092;2023-05-22T11:42:30;101287.59;;;23.75;100.00
9784;BME280;4931;44.874;-1.092;2023-05-22T11:44:56;101284.44;;;23.48;100.00
9784;BME280;4931;44.874;-1.092;2023-05-22T11:47:21;101281.28;;;22.96;100.00
9784;BME280;4931;44.874;-1.092;2023-05-22T11:49:47;101289.91;;;22.66;100.00
9784;BME280;4931;44.874;-1.092;2023-05-22T11:52:15;101281.41;;;22.50;100.00
9784;BME280;4931;44.874;-1.092;2023-05-22T11:54:46;101291.22;;;22.57;100.00
9784;BME280;4931;44.874;-1.092;2023-05-22T11:57:13;101286.66;;;22.40;100.00
9784;BME280;4931;44.874;-1.092;2023-05-22T11:59:38;101280.50;;;22.00;100.00
9784;BME280;4931;44.874;-1.092;2023-05-22T12:02:05;101283.44;;;21.70;100.00
9784;BME280;4931;44.874;-1.092;2023-05-22T12:04:32;101287.31;;;21.78;100.00
9784;BME280;4931;44.874;-1.092;2023-05-22T12:06:58;101283.41;;;21.92;100.00
9784;BME280;4931;44.874;-1.092;2023-05-22T12:09:26;101277.81;;;21.92;100.00
9784;BME280;4931;44.874;-1.092;2023-05-22T12:11:54;101287.78;;;22.26;100.00
9784;BME280;4931;44.874;-1.092;2023-05-22T12:14:27;101287.31;;;22.12;100.00
9784;BME280;4931;44.874;-1.092;2023-05-22T12:16:53;101286.38;;;22.08;100.00
9784;BME280;4931;44.874;-1.092;2023-05-22T12:19:20;101283.75;;;21.90;100.00
9784;BME280;4931;44.874;-1.092;2023-05-22T12:21:48;101276.84;;;22.33;100.00
9784;BME280;4931;44.874;-1.092;2023-05-22T12:24:14;101280.66;;;22.04;100.00
9784;BME280;4931;44.874;-1.092;2023-05-22T12:26:40;101281.94;;;22.19;100.00
9784;BME280;4931;44.874;-1.092;2023-05-22T12:29:05;101286.09;;;22.00;100.00
9784;BME280;4931;44.874;-1.092;2023-05-22T12:31:34;101280.16;;;21.89;100.00
9784;BME280;4931;44.874;-1.092;2023-05-22T12:34:03;101281.28;;;21.76;100.00
9784;BME280;4931;44.874;-1.092;2023-05-22T12:36:39;101277.66;;;21.76;100.00
9784;BME280;4931;44.874;-1.092;2023-05-22T12:39:10;101287.09;;;21.83;100.00
9784;BME280;4931;44.874;-1.092;2023-05-22T12:41:36;101276.19;;;21.91;100.00
9784;BME280;4931;44.874;-1.092;2023-05-22T12:44:02;101287.16;;;22.08;100.00
9784;BME280;4931;44.874;-1.092;2023-05-22T12:46:32;101284.69;;;22.52;100.00
9784;BME280;4931;44.874;-1.092;2023-05-22T12:48:58;101275.97;;;22.54;100.00
9784;BME280;4931;44.874;-1.092;2023-05-22T12:51:28;101275.72;;;22.47;100.00
9784;BME280;4931;44.874;-1.092;2023-05-22T12:53:56;101285.91;;;22.18;100.00
9784;BME280;4931;44.874;-1.092;2023-05-22T12:56:21;101283.06;;;21.93;100.00
9784;BME280;4931;44.874;-1.092;2023-05-22T12:58:47;101285.66;;;21.65;100.00
9784;BME280;4931;44.874;-1.092;2023-05-22T13:01:13;101287.91;;;21.29;100.00
9784;BME280;4931;44.874;-1.092;2023-05-22T13:03:38;101290.31;;;20.88;100.00
9784;BME280;4931;44.874;-1.092;2023-05-22T13:06:04;101299.56;;;20.80;100.00